North River — WYR2549 — position and weather

sailwx.info

Track history (hours):
 
Tides and Currents Weather Stations Pressure Air Temp Water Temp Dewpoint Dewpoint Depression Visibility Wind Speed Wind Dir Waves Ship Positions

North River

Owner: CITY OF NEW YORK, Brooklyn, NY. More information available from US FCC via Universal Licensing System and Coast Guard Vessel Documentation Center.

Last reported at 2016-Feb-09 23:07 UTC. Time now 2016-Feb-10 22:12 UTC.
Position N 40°43' W 073°58'.

Length 78 m.

Type: Tanker. MMSI: 367074110.

Date/timePositionNaut miles runAvg speedWind from/ knotsBaromVisibWave heightAir tempDewpointWater temp
2016-Feb-09 23:07N 40°43' W 073°58'712.8
2016-Feb-09 22:33N 40°39' W 074°06'1 1.0
2016-Feb-09 21:33N 40°38' W 074°08'0 0.0
2016-Feb-09 20:33N 40°38' W 074°08'4 4.2
2016-Feb-09 19:33N 40°39' W 074°02'0 0.0
2016-Feb-09 18:34N 40°39' W 074°02'2 1.7
2016-Feb-09 17:33N 40°40' W 074°01'10 0.5
2016-Feb-08 22:08N 40°48' W 073°54'813.6
2016-Feb-08 21:33N 40°42' W 074°00'7 6.5
2016-Feb-08 20:33N 40°38' W 074°08'0 0.0
2016-Feb-08 19:33N 40°38' W 074°08'0 0.0
2016-Feb-08 18:33N 40°38' W 074°08'1010.0
2016-Feb-08 17:33N 40°45' W 073°58'2 0.1
2016-Feb-07 18:07N 40°47' W 073°56'5 8.5
2016-Feb-07 17:33N 40°42' W 073°59'4 4.4
2016-Feb-07 16:33N 40°39' W 074°02'0 0.0
2016-Feb-07 15:33N 40°39' W 074°02'0 0.2
2016-Feb-07 14:34N 40°39' W 074°02'11 0.5
2016-Feb-06 19:09N 40°47' W 073°53'6 0.2
2016-Feb-05 18:33N 40°43' W 073°58'5 4.8
2016-Feb-05 17:33N 40°39' W 074°02'0 0.0
2016-Feb-05 16:34N 40°39' W 074°02'0 0.0
2016-Feb-05 15:33N 40°39' W 074°02'4 3.7
2016-Feb-05 14:33N 40°42' W 074°00'  
Track history (hours):
 
Tides and Currents Weather Stations Pressure Air Temp Water Temp Dewpoint Dewpoint Depression Visibility Wind Speed Wind Dir Waves Ship Positions

North River

Owner: CITY OF NEW YORK, Brooklyn, NY. More information available from US FCC via Universal Licensing System and Coast Guard Vessel Documentation Center.

Last reported at 2016-Feb-09 23:07 UTC. Time now 2016-Feb-10 22:12 UTC.
Position N 40°43' W 073°58'.

Length 78 m.

Type: Tanker. MMSI: 367074110.

Date/timePositionNaut miles runAvg speedWind from/ knotsBaromVisibWave heightAir tempDewpointWater temp
2016-Feb-09 23:07N 40°43' W 073°58'712.8
2016-Feb-09 22:33N 40°39' W 074°06'1 1.0
2016-Feb-09 21:33N 40°38' W 074°08'0 0.0
2016-Feb-09 20:33N 40°38' W 074°08'4 4.2
2016-Feb-09 19:33N 40°39' W 074°02'0 0.0
2016-Feb-09 18:34N 40°39' W 074°02'2 1.7
2016-Feb-09 17:33N 40°40' W 074°01'10 0.5
2016-Feb-08 22:08N 40°48' W 073°54'813.6
2016-Feb-08 21:33N 40°42' W 074°00'7 6.5
2016-Feb-08 20:33N 40°38' W 074°08'0 0.0
2016-Feb-08 19:33N 40°38' W 074°08'0 0.0
2016-Feb-08 18:33N 40°38' W 074°08'1010.0
2016-Feb-08 17:33N 40°45' W 073°58'2 0.1
2016-Feb-07 18:07N 40°47' W 073°56'5 8.5
2016-Feb-07 17:33N 40°42' W 073°59'4 4.4
2016-Feb-07 16:33N 40°39' W 074°02'0 0.0
2016-Feb-07 15:33N 40°39' W 074°02'0 0.2
2016-Feb-07 14:34N 40°39' W 074°02'11 0.5
2016-Feb-06 19:09N 40°47' W 073°53'6 0.2
2016-Feb-05 18:33N 40°43' W 073°58'5 4.8
2016-Feb-05 17:33N 40°39' W 074°02'0 0.0
2016-Feb-05 16:34N 40°39' W 074°02'0 0.0
2016-Feb-05 15:33N 40°39' W 074°02'4 3.7
2016-Feb-05 14:33N 40°42' W 074°00'  

Dump ship's entire track history